sensor_id;sensor_type;location;lat;lon;timestamp;P1;durP1;ratioP1;P2;durP2;ratioP2
37791;SDS011;29527;55.766;37.570;2024-03-08T00:02:23;8.93;;;4.65;;
37791;SDS011;29527;55.766;37.570;2024-03-08T00:04:48;6.95;;;4.55;;
37791;SDS011;29527;55.766;37.570;2024-03-08T00:07:13;7.32;;;4.63;;
37791;SDS011;29527;55.766;37.570;2024-03-08T00:09:39;7.25;;;4.22;;
37791;SDS011;29527;55.766;37.570;2024-03-08T00:12:05;8.27;;;4.47;;
37791;SDS011;29527;55.766;37.570;2024-03-08T00:14:31;11.32;;;4.93;;
37791;SDS011;29527;55.766;37.570;2024-03-08T00:16:56;7.93;;;4.63;;
37791;SDS011;29527;55.766;37.570;2024-03-08T00:19:22;7.55;;;4.88;;
37791;SDS011;29527;55.766;37.570;2024-03-08T00:21:47;8.57;;;4.95;;
37791;SDS011;29527;55.766;37.570;2024-03-08T00:24:13;8.93;;;4.38;;
37791;SDS011;29527;55.766;37.570;2024-03-08T00:26:38;8.30;;;4.15;;
37791;SDS011;29527;55.766;37.570;2024-03-08T00:29:03;5.97;;;4.00;;
37791;SDS011;29527;55.766;37.570;2024-03-08T00:31:29;6.10;;;3.92;;
37791;SDS011;29527;55.766;37.570;2024-03-08T00:33:56;6.32;;;3.95;;
37791;SDS011;29527;55.766;37.570;2024-03-08T00:36:22;6.75;;;3.80;;
37791;SDS011;29527;55.766;37.570;2024-03-08T00:38:47;6.05;;;3.75;;
37791;SDS011;29527;55.766;37.570;2024-03-08T00:41:13;6.75;;;3.95;;
37791;SDS011;29527;55.766;37.570;2024-03-08T00:43:38;5.43;;;3.70;;
37791;SDS011;29527;55.766;37.570;2024-03-08T00:46:04;6.65;;;3.70;;
37791;SDS011;29527;55.766;37.570;2024-03-08T00:48:29;9.77;;;4.05;;
37791;SDS011;29527;55.766;37.570;2024-03-08T00:50:56;8.98;;;4.47;;
37791;SDS011;29527;55.766;37.570;2024-03-08T00:53:21;7.93;;;4.93;;
37791;SDS011;29527;55.766;37.570;2024-03-08T00:55:47;9.35;;;4.50;;
37791;SDS011;29527;55.766;37.570;2024-03-08T00:58:13;7.53;;;4.20;;
37791;SDS011;29527;55.766;37.570;2024-03-08T01:00:38;6.88;;;4.90;;
37791;SDS011;29527;55.766;37.570;2024-03-08T01:03:07;7.07;;;4.05;;
37791;SDS011;29527;55.766;37.570;2024-03-08T01:05:32;5.85;;;4.47;;
37791;SDS011;29527;55.766;37.570;2024-03-08T01:07:58;8.32;;;4.60;;
37791;SDS011;29527;55.766;37.570;2024-03-08T01:10:24;8.77;;;4.88;;
37791;SDS011;29527;55.766;37.570;2024-03-08T01:12:49;7.70;;;4.20;;
37791;SDS011;29527;55.766;37.570;2024-03-08T01:15:19;8.88;;;5.28;;
37791;SDS011;29527;55.766;37.570;2024-03-08T01:17:45;9.43;;;4.82;;
37791;SDS011;29527;55.766;37.570;2024-03-08T01:20:10;9.40;;;4.85;;
37791;SDS011;29527;55.766;37.570;2024-03-08T01:22:38;11.20;;;4.63;;
37791;SDS011;29527;55.766;37.570;2024-03-08T01:25:04;8.80;;;4.82;;
37791;SDS011;29527;55.766;37.570;2024-03-08T01:27:30;8.85;;;4.75;;
37791;SDS011;29527;55.766;37.570;2024-03-08T01:29:56;7.50;;;4.03;;
37791;SDS011;29527;55.766;37.570;2024-03-08T01:32:21;7.53;;;5.25;;
37791;SDS011;29527;55.766;37.570;2024-03-08T01:34:48;9.52;;;4.47;;
37791;SDS011;29527;55.766;37.570;2024-03-08T01:37:14;6.15;;;4.07;;
37791;SDS011;29527;55.766;37.570;2024-03-08T01:39:39;7.28;;;4.25;;
37791;SDS011;29527;55.766;37.570;2024-03-08T01:42:05;7.75;;;4.35;;
37791;SDS011;29527;55.766;37.570;2024-03-08T01:44:30;8.13;;;4.57;;
37791;SDS011;29527;55.766;37.570;2024-03-08T01:46:56;7.65;;;4.25;;
37791;SDS011;29527;55.766;37.570;2024-03-08T01:49:22;10.90;;;4.93;;
37791;SDS011;29527;55.766;37.570;2024-03-08T01:51:48;9.23;;;4.45;;
37791;SDS011;29527;55.766;37.570;2024-03-08T01:54:14;6.95;;;4.50;;
37791;SDS011;29527;55.766;37.570;2024-03-08T01:56:41;8.45;;;4.80;;
37791;SDS011;29527;55.766;37.570;2024-03-08T01:59:07;9.93;;;4.82;;
37791;SDS011;29527;55.766;37.570;2024-03-08T02:01:33;8.60;;;4.95;;
37791;SDS011;29527;55.766;37.570;2024-03-08T02:03:59;8.02;;;4.22;;
37791;SDS011;29527;55.766;37.570;2024-03-08T02:06:24;8.23;;;4.35;;
37791;SDS011;29527;55.766;37.570;2024-03-08T02:08:50;6.78;;;3.92;;
37791;SDS011;29527;55.766;37.570;2024-03-08T02:11:16;6.68;;;4.15;;
37791;SDS011;29527;55.766;37.570;2024-03-08T02:13:42;6.88;;;4.25;;
37791;SDS011;29527;55.766;37.570;2024-03-08T02:16:08;6.15;;;4.10;;
37791;SDS011;29527;55.766;37.570;2024-03-08T02:18:34;5.93;;;3.95;;
37791;SDS011;29527;55.766;37.570;2024-03-08T02:21:05;5.30;;;3.67;;
37791;SDS011;29527;55.766;37.570;2024-03-08T02:23:30;6.85;;;4.20;;
37791;SDS011;29527;55.766;37.570;2024-03-08T02:25:57;9.10;;;3.92;;
37791;SDS011;29527;55.766;37.570;2024-03-08T02:28:23;8.50;;;4.20;;
37791;SDS011;29527;55.766;37.570;2024-03-08T02:30:50;6.57;;;4.03;;
37791;SDS011;29527;55.766;37.570;2024-03-08T02:33:16;7.32;;;4.00;;
37791;SDS011;29527;55.766;37.570;2024-03-08T02:35:42;6.85;;;3.95;;
37791;SDS011;29527;55.766;37.570;2024-03-08T02:38:11;8.35;;;3.75;;
37791;SDS011;29527;55.766;37.570;2024-03-08T02:40:36;6.78;;;4.07;;
37791;SDS011;29527;55.766;37.570;2024-03-08T02:43:02;6.40;;;4.13;;
37791;SDS011;29527;55.766;37.570;2024-03-08T02:45:27;8.25;;;4.40;;
37791;SDS011;29527;55.766;37.570;2024-03-08T02:47:52;6.05;;;3.55;;
37791;SDS011;29527;55.766;37.570;2024-03-08T02:50:18;9.38;;;4.10;;
37791;SDS011;29527;55.766;37.570;2024-03-08T02:52:43;8.52;;;4.45;;
37791;SDS011;29527;55.766;37.570;2024-03-08T02:55:09;9.73;;;4.38;;
37791;SDS011;29527;55.766;37.570;2024-03-08T02:57:36;7.70;;;4.53;;
37791;SDS011;29527;55.766;37.570;2024-03-08T03:00:01;6.68;;;4.35;;
37791;SDS011;29527;55.766;37.570;2024-03-08T03:02:29;8.75;;;4.57;;
37791;SDS011;29527;55.766;37.570;2024-03-08T03:04:54;9.85;;;4.57;;
37791;SDS011;29527;55.766;37.570;2024-03-08T03:07:21;8.70;;;4.82;;
37791;SDS011;29527;55.766;37.570;2024-03-08T03:09:46;7.85;;;5.00;;
37791;SDS011;29527;55.766;37.570;2024-03-08T03:12:12;8.23;;;5.25;;
37791;SDS011;29527;55.766;37.570;2024-03-08T03:14:37;8.73;;;5.20;;
37791;SDS011;29527;55.766;37.570;2024-03-08T03:17:05;8.77;;;5.72;;
37791;SDS011;29527;55.766;37.570;2024-03-08T03:19:31;9.43;;;5.65;;
37791;SDS011;29527;55.766;37.570;2024-03-08T03:21:56;11.05;;;6.18;;
37791;SDS011;29527;55.766;37.570;2024-03-08T03:24:22;11.32;;;6.25;;
37791;SDS011;29527;55.766;37.570;2024-03-08T03:26:48;10.05;;;5.63;;
37791;SDS011;29527;55.766;37.570;2024-03-08T03:29:14;12.45;;;6.50;;
37791;SDS011;29527;55.766;37.570;2024-03-08T03:31:42;9.27;;;5.82;;
37791;SDS011;29527;55.766;37.570;2024-03-08T03:34:07;8.60;;;5.65;;
37791;SDS011;29527;55.766;37.570;2024-03-08T03:36:34;10.73;;;5.72;;
37791;SDS011;29527;55.766;37.570;2024-03-08T03:39:00;10.70;;;5.45;;
37791;SDS011;29527;55.766;37.570;2024-03-08T03:41:36;9.60;;;6.10;;
37791;SDS011;29527;55.766;37.570;2024-03-08T03:44:01;10.15;;;6.97;;
37791;SDS011;29527;55.766;37.570;2024-03-08T03:46:27;7.53;;;5.57;;
37791;SDS011;29527;55.766;37.570;2024-03-08T03:48:53;9.25;;;5.72;;
37791;SDS011;29527;55.766;37.570;2024-03-08T03:51:18;9.65;;;5.57;;
37791;SDS011;29527;55.766;37.570;2024-03-08T03:53:45;11.68;;;6.10;;
37791;SDS011;29527;55.766;37.570;2024-03-08T03:56:10;7.95;;;5.60;;
37791;SDS011;29527;55.766;37.570;2024-03-08T03:58:36;11.73;;;5.82;;
37791;SDS011;29527;55.766;37.570;2024-03-08T04:01:01;9.65;;;5.70;;
37791;SDS011;29527;55.766;37.570;2024-03-08T04:03:26;8.90;;;5.97;;
37791;SDS011;29527;55.766;37.570;2024-03-08T04:05:52;10.13;;;5.93;;
37791;SDS011;29527;55.766;37.570;2024-03-08T04:08:17;9.60;;;6.18;;
37791;SDS011;29527;55.766;37.570;2024-03-08T04:10:42;9.35;;;6.38;;
37791;SDS011;29527;55.766;37.570;2024-03-08T04:13:08;10.57;;;6.72;;
37791;SDS011;29527;55.766;37.570;2024-03-08T04:15:34;10.05;;;6.60;;
37791;SDS011;29527;55.766;37.570;2024-03-08T04:18:00;9.80;;;6.30;;
37791;SDS011;29527;55.766;37.570;2024-03-08T04:20:25;12.45;;;6.97;;
37791;SDS011;29527;55.766;37.570;2024-03-08T04:22:51;11.80;;;6.57;;
37791;SDS011;29527;55.766;37.570;2024-03-08T04:25:17;11.38;;;6.68;;
37791;SDS011;29527;55.766;37.570;2024-03-08T04:27:43;14.05;;;7.28;;
37791;SDS011;29527;55.766;37.570;2024-03-08T04:30:09;13.48;;;6.80;;
37791;SDS011;29527;55.766;37.570;2024-03-08T04:32:35;13.05;;;7.20;;
37791;SDS011;29527;55.766;37.570;2024-03-08T04:35:00;11.02;;;6.95;;
37791;SDS011;29527;55.766;37.570;2024-03-08T04:37:30;12.20;;;7.13;;
37791;SDS011;29527;55.766;37.570;2024-03-08T04:39:55;11.60;;;7.57;;
37791;SDS011;29527;55.766;37.570;2024-03-08T04:42:20;12.10;;;6.95;;
37791;SDS011;29527;55.766;37.570;2024-03-08T04:44:46;11.30;;;7.28;;
37791;SDS011;29527;55.766;37.570;2024-03-08T04:47:12;12.80;;;7.10;;
37791;SDS011;29527;55.766;37.570;2024-03-08T04:49:37;10.38;;;6.82;;
37791;SDS011;29527;55.766;37.570;2024-03-08T04:52:03;12.07;;;7.68;;
37791;SDS011;29527;55.766;37.570;2024-03-08T04:54:32;10.77;;;7.13;;
37791;SDS011;29527;55.766;37.570;2024-03-08T04:56:58;11.40;;;6.57;;
37791;SDS011;29527;55.766;37.570;2024-03-08T04:59:26;11.68;;;6.90;;
37791;SDS011;29527;55.766;37.570;2024-03-08T05:01:51;14.05;;;7.15;;
37791;SDS011;29527;55.766;37.570;2024-03-08T05:04:17;10.45;;;6.47;;
37791;SDS011;29527;55.766;37.570;2024-03-08T05:06:42;10.60;;;6.78;;
37791;SDS011;29527;55.766;37.570;2024-03-08T05:09:07;13.48;;;7.03;;
37791;SDS011;29527;55.766;37.570;2024-03-08T05:11:43;10.93;;;6.63;;
37791;SDS011;29527;55.766;37.570;2024-03-08T05:14:09;16.55;;;7.93;;
37791;SDS011;29527;55.766;37.570;2024-03-08T05:16:35;12.60;;;6.88;;
37791;SDS011;29527;55.766;37.570;2024-03-08T05:19:01;10.68;;;6.20;;
37791;SDS011;29527;55.766;37.570;2024-03-08T05:21:27;12.80;;;6.10;;
37791;SDS011;29527;55.766;37.570;2024-03-08T05:23:54;12.38;;;6.70;;
37791;SDS011;29527;55.766;37.570;2024-03-08T05:26:19;12.45;;;6.68;;
37791;SDS011;29527;55.766;37.570;2024-03-08T05:28:44;13.43;;;6.63;;
37791;SDS011;29527;55.766;37.570;2024-03-08T05:31:10;10.98;;;6.50;;
37791;SDS011;29527;55.766;37.570;2024-03-08T05:33:35;12.50;;;6.50;;
37791;SDS011;29527;55.766;37.570;2024-03-08T05:36:00;12.00;;;6.80;;
37791;SDS011;29527;55.766;37.570;2024-03-08T05:38:27;14.07;;;6.57;;
37791;SDS011;29527;55.766;37.570;2024-03-08T05:40:53;12.88;;;6.35;;
37791;SDS011;29527;55.766;37.570;2024-03-08T05:43:19;11.63;;;6.57;;
37791;SDS011;29527;55.766;37.570;2024-03-08T05:45:45;13.10;;;6.60;;
37791;SDS011;29527;55.766;37.570;2024-03-08T05:48:10;14.82;;;6.65;;
37791;SDS011;29527;55.766;37.570;2024-03-08T05:50:37;13.05;;;7.40;;
37791;SDS011;29527;55.766;37.570;2024-03-08T05:53:04;12.82;;;6.72;;
37791;SDS011;29527;55.766;37.570;2024-03-08T05:55:32;14.63;;;6.90;;
37791;SDS011;29527;55.766;37.570;2024-03-08T05:58:00;13.38;;;6.72;;
37791;SDS011;29527;55.766;37.570;2024-03-08T06:00:26;12.93;;;6.53;;
37791;SDS011;29527;55.766;37.570;2024-03-08T06:02:51;9.15;;;6.40;;
37791;SDS011;29527;55.766;37.570;2024-03-08T06:05:16;12.32;;;6.15;;
37791;SDS011;29527;55.766;37.570;2024-03-08T06:07:42;12.63;;;6.88;;
37791;SDS011;29527;55.766;37.570;2024-03-08T06:10:08;12.52;;;6.30;;
37791;SDS011;29527;55.766;37.570;2024-03-08T06:12:35;12.50;;;7.20;;
37791;SDS011;29527;55.766;37.570;2024-03-08T06:15:05;9.68;;;6.18;;
37791;SDS011;29527;55.766;37.570;2024-03-08T06:17:31;12.35;;;6.53;;
37791;SDS011;29527;55.766;37.570;2024-03-08T06:19:56;10.23;;;6.82;;
37791;SDS011;29527;55.766;37.570;2024-03-08T06:22:22;13.85;;;7.32;;
37791;SDS011;29527;55.766;37.570;2024-03-08T06:24:47;11.25;;;6.57;;
37791;SDS011;29527;55.766;37.570;2024-03-08T06:27:12;10.70;;;6.85;;
37791;SDS011;29527;55.766;37.570;2024-03-08T06:29:39;10.85;;;5.93;;
37791;SDS011;29527;55.766;37.570;2024-03-08T06:32:04;11.00;;;6.55;;
37791;SDS011;29527;55.766;37.570;2024-03-08T06:34:32;11.70;;;6.38;;
37791;SDS011;29527;55.766;37.570;2024-03-08T06:36:57;10.13;;;6.68;;
37791;SDS011;29527;55.766;37.570;2024-03-08T06:39:26;12.23;;;6.88;;
37791;SDS011;29527;55.766;37.570;2024-03-08T06:41:51;10.68;;;6.47;;
37791;SDS011;29527;55.766;37.570;2024-03-08T06:44:17;10.25;;;6.90;;
37791;SDS011;29527;55.766;37.570;2024-03-08T06:46:42;10.82;;;6.72;;
37791;SDS011;29527;55.766;37.570;2024-03-08T06:49:07;10.68;;;6.47;;
37791;SDS011;29527;55.766;37.570;2024-03-08T06:51:34;11.77;;;7.05;;
37791;SDS011;29527;55.766;37.570;2024-03-08T06:54:00;11.52;;;6.43;;
37791;SDS011;29527;55.766;37.570;2024-03-08T06:56:25;11.10;;;6.80;;
37791;SDS011;29527;55.766;37.570;2024-03-08T06:58:51;9.75;;;6.70;;
37791;SDS011;29527;55.766;37.570;2024-03-08T07:01:17;10.13;;;6.82;;
37791;SDS011;29527;55.766;37.570;2024-03-08T07:03:43;11.35;;;6.97;;
37791;SDS011;29527;55.766;37.570;2024-03-08T07:06:10;12.25;;;6.88;;
37791;SDS011;29527;55.766;37.570;2024-03-08T07:08:36;12.38;;;7.25;;
37791;SDS011;29527;55.766;37.570;2024-03-08T07:11:01;9.15;;;6.38;;
37791;SDS011;29527;55.766;37.570;2024-03-08T07:13:26;11.57;;;6.60;;
37791;SDS011;29527;55.766;37.570;2024-03-08T07:15:53;10.70;;;6.80;;
37791;SDS011;29527;55.766;37.570;2024-03-08T07:18:18;9.90;;;6.90;;
37791;SDS011;29527;55.766;37.570;2024-03-08T07:20:44;11.93;;;7.22;;
37791;SDS011;29527;55.766;37.570;2024-03-08T07:23:09;10.15;;;7.43;;
37791;SDS011;29527;55.766;37.570;2024-03-08T07:25:35;11.32;;;7.40;;
37791;SDS011;29527;55.766;37.570;2024-03-08T07:28:04;13.10;;;7.20;;
37791;SDS011;29527;55.766;37.570;2024-03-08T07:30:31;11.30;;;6.90;;
37791;SDS011;29527;55.766;37.570;2024-03-08T07:33:09;13.10;;;7.07;;
37791;SDS011;29527;55.766;37.570;2024-03-08T07:35:37;13.50;;;7.82;;
37791;SDS011;29527;55.766;37.570;2024-03-08T07:38:03;11.05;;;7.13;;
37791;SDS011;29527;55.766;37.570;2024-03-08T07:40:29;12.52;;;6.90;;
37791;SDS011;29527;55.766;37.570;2024-03-08T07:42:55;12.90;;;7.43;;
37791;SDS011;29527;55.766;37.570;2024-03-08T07:45:20;11.90;;;7.22;;
37791;SDS011;29527;55.766;37.570;2024-03-08T07:47:47;15.82;;;8.07;;
37791;SDS011;29527;55.766;37.570;2024-03-08T07:50:12;11.93;;;7.60;;
37791;SDS011;29527;55.766;37.570;2024-03-08T07:52:41;16.85;;;7.80;;
37791;SDS011;29527;55.766;37.570;2024-03-08T07:55:07;13.00;;;8.18;;
37791;SDS011;29527;55.766;37.570;2024-03-08T07:57:33;11.35;;;7.78;;
37791;SDS011;29527;55.766;37.570;2024-03-08T07:59:58;13.73;;;8.00;;
37791;SDS011;29527;55.766;37.570;2024-03-08T08:02:24;10.88;;;7.50;;
37791;SDS011;29527;55.766;37.570;2024-03-08T08:04:49;13.77;;;7.85;;
37791;SDS011;29527;55.766;37.570;2024-03-08T08:07:14;11.57;;;7.28;;
37791;SDS011;29527;55.766;37.570;2024-03-08T08:09:40;12.75;;;7.45;;
37791;SDS011;29527;55.766;37.570;2024-03-08T08:12:08;12.27;;;7.90;;
37791;SDS011;29527;55.766;37.570;2024-03-08T08:14:35;21.33;;;8.18;;
37791;SDS011;29527;55.766;37.570;2024-03-08T08:17:00;11.35;;;7.80;;
37791;SDS011;29527;55.766;37.570;2024-03-08T08:19:28;12.23;;;7.90;;
37791;SDS011;29527;55.766;37.570;2024-03-08T08:21:54;21.77;;;8.52;;
37791;SDS011;29527;55.766;37.570;2024-03-08T08:24:19;15.98;;;7.93;;
37791;SDS011;29527;55.766;37.570;2024-03-08T08:26:47;13.50;;;7.97;;
37791;SDS011;29527;55.766;37.570;2024-03-08T08:29:12;11.82;;;7.43;;
37791;SDS011;29527;55.766;37.570;2024-03-08T08:31:37;11.27;;;7.90;;
37791;SDS011;29527;55.766;37.570;2024-03-08T08:34:03;12.80;;;7.90;;
37791;SDS011;29527;55.766;37.570;2024-03-08T08:36:28;12.10;;;7.28;;
37791;SDS011;29527;55.766;37.570;2024-03-08T08:38:55;12.77;;;7.70;;
37791;SDS011;29527;55.766;37.570;2024-03-08T08:41:23;14.27;;;8.93;;
37791;SDS011;29527;55.766;37.570;2024-03-08T08:43:48;19.83;;;10.38;;
37791;SDS011;29527;55.766;37.570;2024-03-08T08:46:17;17.00;;;9.57;;
37791;SDS011;29527;55.766;37.570;2024-03-08T08:48:43;15.32;;;9.20;;
37791;SDS011;29527;55.766;37.570;2024-03-08T08:51:13;14.35;;;9.57;;
37791;SDS011;29527;55.766;37.570;2024-03-08T08:53:39;14.07;;;9.38;;
37791;SDS011;29527;55.766;37.570;2024-03-08T08:56:11;16.00;;;9.43;;
37791;SDS011;29527;55.766;37.570;2024-03-08T08:58:47;16.10;;;8.40;;
37791;SDS011;29527;55.766;37.570;2024-03-08T09:01:14;15.13;;;9.52;;
37791;SDS011;29527;55.766;37.570;2024-03-08T09:03:39;12.10;;;8.75;;
37791;SDS011;29527;55.766;37.570;2024-03-08T09:06:11;12.95;;;8.82;;
37791;SDS011;29527;55.766;37.570;2024-03-08T09:08:37;11.05;;;7.78;;
37791;SDS011;29527;55.766;37.570;2024-03-08T09:11:03;12.45;;;8.13;;
37791;SDS011;29527;55.766;37.570;2024-03-08T09:13:29;16.13;;;8.07;;
37791;SDS011;29527;55.766;37.570;2024-03-08T09:15:54;12.00;;;7.93;;
37791;SDS011;29527;55.766;37.570;2024-03-08T09:18:20;11.73;;;8.15;;
37791;SDS011;29527;55.766;37.570;2024-03-08T09:20:45;13.95;;;8.80;;
37791;SDS011;29527;55.766;37.570;2024-03-08T09:23:12;13.65;;;8.50;;
37791;SDS011;29527;55.766;37.570;2024-03-08T09:25:37;11.95;;;8.68;;
37791;SDS011;29527;55.766;37.570;2024-03-08T09:28:03;11.23;;;7.93;;
37791;SDS011;29527;55.766;37.570;2024-03-08T09:30:28;13.20;;;8.18;;
37791;SDS011;29527;55.766;37.570;2024-03-08T09:32:54;10.20;;;7.45;;
37791;SDS011;29527;55.766;37.570;2024-03-08T09:35:19;10.60;;;7.15;;
37791;SDS011;29527;55.766;37.570;2024-03-08T09:37:44;10.35;;;7.22;;
37791;SDS011;29527;55.766;37.570;2024-03-08T09:40:12;9.82;;;7.03;;
37791;SDS011;29527;55.766;37.570;2024-03-08T09:42:43;10.90;;;6.97;;
37791;SDS011;29527;55.766;37.570;2024-03-08T09:45:09;9.88;;;7.35;;
37791;SDS011;29527;55.766;37.570;2024-03-08T09:47:41;12.63;;;7.15;;
37791;SDS011;29527;55.766;37.570;2024-03-08T09:50:07;9.45;;;6.85;;
37791;SDS011;29527;55.766;37.570;2024-03-08T09:52:38;9.85;;;6.88;;
37791;SDS011;29527;55.766;37.570;2024-03-08T09:55:05;9.85;;;6.65;;
37791;SDS011;29527;55.766;37.570;2024-03-08T09:57:32;10.30;;;7.80;;
37791;SDS011;29527;55.766;37.570;2024-03-08T09:59:57;11.50;;;7.18;;
37791;SDS011;29527;55.766;37.570;2024-03-08T10:02:23;10.95;;;7.68;;
37791;SDS011;29527;55.766;37.570;2024-03-08T10:04:48;10.02;;;7.50;;
37791;SDS011;29527;55.766;37.570;2024-03-08T10:07:14;12.00;;;7.95;;
37791;SDS011;29527;55.766;37.570;2024-03-08T10:09:39;13.50;;;7.63;;
37791;SDS011;29527;55.766;37.570;2024-03-08T10:12:06;11.82;;;7.60;;
37791;SDS011;29527;55.766;37.570;2024-03-08T10:14:32;14.00;;;8.23;;
37791;SDS011;29527;55.766;37.570;2024-03-08T10:16:57;13.63;;;8.35;;
37791;SDS011;29527;55.766;37.570;2024-03-08T10:19:26;11.70;;;8.07;;
37791;SDS011;29527;55.766;37.570;2024-03-08T10:21:52;12.27;;;8.48;;
37791;SDS011;29527;55.766;37.570;2024-03-08T10:24:19;13.18;;;8.68;;
37791;SDS011;29527;55.766;37.570;2024-03-08T10:26:44;13.07;;;8.48;;
37791;SDS011;29527;55.766;37.570;2024-03-08T10:29:09;10.18;;;7.70;;
37791;SDS011;29527;55.766;37.570;2024-03-08T10:31:35;13.77;;;8.90;;
37791;SDS011;29527;55.766;37.570;2024-03-08T10:34:01;10.43;;;7.55;;
37791;SDS011;29527;55.766;37.570;2024-03-08T10:36:26;9.68;;;7.82;;
37791;SDS011;29527;55.766;37.570;2024-03-08T10:38:53;10.10;;;7.47;;
37791;SDS011;29527;55.766;37.570;2024-03-08T10:41:18;11.70;;;7.43;;
37791;SDS011;29527;55.766;37.570;2024-03-08T10:43:52;11.48;;;7.70;;
37791;SDS011;29527;55.766;37.570;2024-03-08T10:49:16;9.30;;;7.38;;
37791;SDS011;29527;55.766;37.570;2024-03-08T10:51:42;10.48;;;7.20;;
37791;SDS011;29527;55.766;37.570;2024-03-08T10:54:09;11.02;;;7.65;;
37791;SDS011;29527;55.766;37.570;2024-03-08T10:56:35;11.18;;;7.60;;
37791;SDS011;29527;55.766;37.570;2024-03-08T10:59:01;9.13;;;7.35;;
37791;SDS011;29527;55.766;37.570;2024-03-08T11:01:27;13.40;;;7.85;;
37791;SDS011;29527;55.766;37.570;2024-03-08T11:03:52;9.55;;;7.30;;
37791;SDS011;29527;55.766;37.570;2024-03-08T11:09:02;14.35;;;7.60;;
37791;SDS011;29527;55.766;37.570;2024-03-08T11:13:55;11.98;;;8.00;;
37791;SDS011;29527;55.766;37.570;2024-03-08T11:21:30;11.68;;;7.53;;
37791;SDS011;29527;55.766;37.570;2024-03-08T11:24:00;12.27;;;8.65;;
37791;SDS011;29527;55.766;37.570;2024-03-08T11:26:25;11.38;;;7.68;;
37791;SDS011;29527;55.766;37.570;2024-03-08T11:28:50;10.15;;;7.60;;
37791;SDS011;29527;55.766;37.570;2024-03-08T11:33:46;14.88;;;8.35;;
37791;SDS011;29527;55.766;37.570;2024-03-08T11:36:14;12.63;;;8.00;;
37791;SDS011;29527;55.766;37.570;2024-03-08T11:38:47;13.75;;;8.38;;
37791;SDS011;29527;55.766;37.570;2024-03-08T11:41:14;12.95;;;8.60;;
37791;SDS011;29527;55.766;37.570;2024-03-08T11:43:40;13.07;;;8.23;;
37791;SDS011;29527;55.766;37.570;2024-03-08T11:46:10;11.48;;;8.35;;
37791;SDS011;29527;55.766;37.570;2024-03-08T11:48:37;12.48;;;7.90;;
37791;SDS011;29527;55.766;37.570;2024-03-08T11:51:03;12.00;;;7.97;;
37791;SDS011;29527;55.766;37.570;2024-03-08T11:53:30;10.73;;;7.38;;
37791;SDS011;29527;55.766;37.570;2024-03-08T11:58:31;10.53;;;7.63;;
37791;SDS011;29527;55.766;37.570;2024-03-08T12:01:30;11.00;;;7.22;;
37791;SDS011;29527;55.766;37.570;2024-03-08T12:03:55;10.57;;;7.05;;
37791;SDS011;29527;55.766;37.570;2024-03-08T12:06:24;9.32;;;6.78;;
37791;SDS011;29527;55.766;37.570;2024-03-08T12:08:49;12.32;;;7.88;;
37791;SDS011;29527;55.766;37.570;2024-03-08T12:11:19;10.02;;;6.93;;
37791;SDS011;29527;55.766;37.570;2024-03-08T12:13:48;12.43;;;7.60;;
37791;SDS011;29527;55.766;37.570;2024-03-08T12:16:16;9.82;;;6.97;;
37791;SDS011;29527;55.766;37.570;2024-03-08T12:18:43;12.05;;;7.43;;
37791;SDS011;29527;55.766;37.570;2024-03-08T12:21:10;11.05;;;7.13;;
37791;SDS011;29527;55.766;37.570;2024-03-08T12:24:01;10.38;;;7.03;;
37791;SDS011;29527;55.766;37.570;2024-03-08T12:26:28;9.82;;;7.20;;
37791;SDS011;29527;55.766;37.570;2024-03-08T12:28:53;10.13;;;7.00;;
37791;SDS011;29527;55.766;37.570;2024-03-08T12:31:18;12.50;;;8.20;;
37791;SDS011;29527;55.766;37.570;2024-03-08T12:33:50;12.90;;;6.93;;
37791;SDS011;29527;55.766;37.570;2024-03-08T12:36:16;11.70;;;7.07;;
37791;SDS011;29527;55.766;37.570;2024-03-08T12:38:45;12.73;;;7.72;;
37791;SDS011;29527;55.766;37.570;2024-03-08T12:41:18;12.85;;;7.78;;
37791;SDS011;29527;55.766;37.570;2024-03-08T12:43:44;14.80;;;8.68;;
37791;SDS011;29527;55.766;37.570;2024-03-08T12:46:14;10.90;;;7.30;;
37791;SDS011;29527;55.766;37.570;2024-03-08T12:48:40;10.38;;;7.38;;
37791;SDS011;29527;55.766;37.570;2024-03-08T12:51:08;9.43;;;6.57;;
37791;SDS011;29527;55.766;37.570;2024-03-08T12:53:34;10.15;;;6.95;;
37791;SDS011;29527;55.766;37.570;2024-03-08T12:55:59;10.85;;;6.82;;
37791;SDS011;29527;55.766;37.570;2024-03-08T12:58:25;9.95;;;6.63;;
37791;SDS011;29527;55.766;37.570;2024-03-08T13:00:53;11.35;;;6.70;;
37791;SDS011;29527;55.766;37.570;2024-03-08T13:03:18;11.18;;;7.47;;
37791;SDS011;29527;55.766;37.570;2024-03-08T13:05:44;13.45;;;8.23;;
37791;SDS011;29527;55.766;37.570;2024-03-08T13:08:09;14.82;;;8.15;;
37791;SDS011;29527;55.766;37.570;2024-03-08T13:10:41;22.10;;;9.70;;
37791;SDS011;29527;55.766;37.570;2024-03-08T13:13:09;16.17;;;7.57;;
37791;SDS011;29527;55.766;37.570;2024-03-08T13:15:35;21.50;;;8.48;;
37791;SDS011;29527;55.766;37.570;2024-03-08T13:18:00;16.25;;;7.65;;
37791;SDS011;29527;55.766;37.570;2024-03-08T13:20:26;12.75;;;7.28;;
37791;SDS011;29527;55.766;37.570;2024-03-08T13:22:53;8.73;;;5.68;;
37791;SDS011;29527;55.766;37.570;2024-03-08T13:25:19;11.70;;;6.45;;
37791;SDS011;29527;55.766;37.570;2024-03-08T13:27:45;12.18;;;6.65;;
37791;SDS011;29527;55.766;37.570;2024-03-08T13:30:11;9.20;;;6.30;;
37791;SDS011;29527;55.766;37.570;2024-03-08T13:32:39;10.32;;;6.05;;
37791;SDS011;29527;55.766;37.570;2024-03-08T13:35:05;9.52;;;6.07;;
37791;SDS011;29527;55.766;37.570;2024-03-08T13:37:40;14.80;;;6.93;;
37791;SDS011;29527;55.766;37.570;2024-03-08T13:40:06;16.27;;;7.10;;
37791;SDS011;29527;55.766;37.570;2024-03-08T13:42:39;11.55;;;7.00;;
37791;SDS011;29527;55.766;37.570;2024-03-08T13:45:05;10.85;;;6.43;;
37791;SDS011;29527;55.766;37.570;2024-03-08T13:47:32;13.75;;;6.72;;
37791;SDS011;29527;55.766;37.570;2024-03-08T13:49:57;11.35;;;6.55;;
37791;SDS011;29527;55.766;37.570;2024-03-08T13:52:23;10.50;;;6.32;;
37791;SDS011;29527;55.766;37.570;2024-03-08T13:54:50;8.38;;;5.78;;
37791;SDS011;29527;55.766;37.570;2024-03-08T13:57:16;9.45;;;6.57;;
37791;SDS011;29527;55.766;37.570;2024-03-08T13:59:42;9.32;;;6.03;;
37791;SDS011;29527;55.766;37.570;2024-03-08T14:02:07;15.70;;;6.88;;
37791;SDS011;29527;55.766;37.570;2024-03-08T14:04:38;13.77;;;6.20;;
37791;SDS011;29527;55.766;37.570;2024-03-08T14:07:04;12.48;;;6.63;;
37791;SDS011;29527;55.766;37.570;2024-03-08T14:09:33;9.60;;;6.18;;
37791;SDS011;29527;55.766;37.570;2024-03-08T14:12:02;8.43;;;5.82;;
37791;SDS011;29527;55.766;37.570;2024-03-08T14:14:28;9.00;;;6.15;;
37791;SDS011;29527;55.766;37.570;2024-03-08T14:16:54;9.20;;;5.32;;
37791;SDS011;29527;55.766;37.570;2024-03-08T14:19:23;9.80;;;5.93;;
37791;SDS011;29527;55.766;37.570;2024-03-08T14:21:48;11.18;;;6.13;;
37791;SDS011;29527;55.766;37.570;2024-03-08T14:24:14;8.60;;;5.85;;
37791;SDS011;29527;55.766;37.570;2024-03-08T14:26:40;12.00;;;6.65;;
37791;SDS011;29527;55.766;37.570;2024-03-08T14:29:07;11.32;;;6.65;;
37791;SDS011;29527;55.766;37.570;2024-03-08T14:31:32;11.23;;;6.60;;
37791;SDS011;29527;55.766;37.570;2024-03-08T14:33:58;8.90;;;6.07;;
37791;SDS011;29527;55.766;37.570;2024-03-08T14:36:24;9.13;;;5.88;;
37791;SDS011;29527;55.766;37.570;2024-03-08T14:38:51;9.02;;;6.35;;
37791;SDS011;29527;55.766;37.570;2024-03-08T14:41:16;9.13;;;5.75;;